Accueil
METAR-TAF:

METAR-TAF

Aéroports :

Aéroport du Havre-Octeville

Le Havre, France

latitude: 49-31N, longitude: 000-04E, altitude: 100 m

Observation

Le bulletin a été fait il y a 36 minutes, à 05:00 UTC
Vent 7 kt de sud/sud-est
Température 10°C
Humidité 87%
Pression 1015 hPa
Visibilité 10 km ou plus
pas de nuages en-dessous de 1500 mètres et pas de cumulonimbus.

METAR: LFOH 280500Z AUTO 16007KT CAVOK 10/08 Q1015

Heure: 07:36 (05:36 UTC)

Prévision

Le bulletin a été fait il y a 18 heures et 36 minutes, à 11:00 UTC
Prévision valable du 27 à 12 UTC au 28 à 12 UTC
Vent 10 kt de sud/sud-ouest
Visibilité 10 km ou plus
Nuages épars à une hauteur de 2000 ft

TAF: LFOH 271100Z 2712/2812 20010KT 9999 SCT020

Observations et prévisions météorologiques de plus de 4000 aéroports (messages METAR et TAF).

Les stations disponibles sont représentées par des disques jaunes et rouges sur la carte.

Passer la souris dessus pour voir le nom de la station.

Cliquer dessus pour voir les observations et prévisions météorologiques.

Pour changer de carte: cliquez sur les boutons verts avec une croix noire pour zoomer, sur le bouton vert avec un tiret pour effectuer un zoom arrière, ou sur les flèches vertes pour les cartes adjacentes.


METAR-TAF: